Time;durP1;ratioP1;P1;durP2;ratioP2;P2;SDS_P1;SDS_P2;PMS_P1;PMS_P2;Temp;Humidity;BMP_temperature;BMP_pressure;BME280_temperature;BME280_humidity;BME280_pressure;Samples;Min_cycle;Max_cycle;Signal;HPM_P1;HPM_P2
2022/07/01 00:01:19;;;;;;;3.30;2.35;;;;;;;25.54;44.76;99395.06;5053074;28;20108;-92
2022/07/01 00:03:51;;;;;;;2.33;2.00;;;;;;;24.97;44.84;99291.88;5053638;28;20033;-92
2022/07/01 00:06:17;;;;;;;4.13;2.40;;;;;;;25.92;44.60;99418.63;5052606;28;20032;-93
2022/07/01 00:08:43;;;;;;;4.95;2.42;;;;;;;25.41;44.67;99334.31;5052022;28;20032;-92
2022/07/01 00:11:08;;;;;;;3.47;2.35;;;;;;;24.48;44.79;99209.97;5053269;28;20029;-92
2022/07/01 00:13:34;;;;;;;5.10;2.60;;;;;;;25.98;44.20;99430.22;5052225;28;20025;-93
2022/07/01 00:15:59;;;;;;;4.35;2.55;;;;;;;25.97;44.45;99413.19;5052253;28;20429;-94
2022/07/01 00:18:25;;;;;;;5.50;2.33;;;;;;;25.39;44.15;99322.19;5052308;28;20028;-92
2022/07/01 00:20:51;;;;;;;4.10;2.33;;;;;;;24.84;44.29;99260.03;5052725;28;20170;-92
2022/07/01 00:23:17;;;;;;;7.43;2.70;;;;;;;25.58;44.17;99345.56;5053158;28;20044;-92
2022/07/01 00:25:43;;;;;;;2.90;2.60;;;;;;;25.97;44.33;99412.38;5053440;28;20108;-93
2022/07/01 00:28:09;;;;;;;5.55;2.42;;;;;;;25.67;44.41;99353.09;5052058;28;20102;-93
2022/07/01 00:30:35;;;;;;;6.35;2.53;;;;;;;25.27;44.70;99295.50;5052467;28;20116;-92
2022/07/01 00:33:00;;;;;;;3.95;2.67;;;;;;;24.90;44.26;99248.13;5052386;28;20112;-93
2022/07/01 00:35:25;;;;;;;3.00;2.53;;;;;;;24.82;44.60;99247.91;5051967;28;20043;-93
2022/07/01 00:37:51;;;;;;;3.58;2.58;;;;;;;24.68;44.69;99224.22;5051863;28;20025;-92
2022/07/01 00:40:16;;;;;;;4.55;2.05;;;;;;;24.60;44.83;99234.78;5051927;28;20567;-92
2022/07/01 00:42:43;;;;;;;5.22;3.13;;;;;;;24.94;44.79;99291.59;5051997;28;20025;-92
2022/07/01 00:45:10;;;;;;;3.30;2.55;;;;;;;24.80;44.76;99275.19;5052127;28;20033;-93
2022/07/01 00:47:36;;;;;;;3.50;2.47;;;;;;;25.34;45.30;99387.88;5056071;28;20025;-93
2022/07/01 00:50:07;;;;;;;4.45;2.15;;;;;;;25.00;45.38;99350.72;5067578;28;20084;-93
2022/07/01 00:52:32;;;;;;;4.37;2.70;;;;;;;24.56;45.52;99312.00;5075362;28;20007;-92
2022/07/01 00:54:59;;;;;;;5.28;2.60;;;;;;;24.71;45.73;99358.66;5057689;28;20115;-93
2022/07/01 00:57:30;;;;;;;4.38;2.30;;;;;;;24.80;45.86;99410.19;5053667;28;20058;-93
2022/07/01 00:59:55;;;;;;;3.80;2.40;;;;;;;24.57;45.93;99390.00;5053889;28;20056;-93
2022/07/01 01:02:21;;;;;;;5.30;2.28;;;;;;;23.65;46.04;99264.34;5052762;28;20053;-92
2022/07/01 01:04:47;;;;;;;4.57;2.55;;;;;;;23.49;46.26;99233.88;5053052;28;20029;-93
2022/07/01 01:07:13;;;;;;;4.22;2.55;;;;;;;24.56;46.09;99406.47;5052392;28;20581;-92
2022/07/01 01:09:39;;;;;;;5.07;2.53;;;;;;;24.21;46.61;99374.91;5049980;28;20031;-93
2022/07/01 01:12:05;;;;;;;4.65;2.70;;;;;;;23.67;46.79;99302.63;5037898;28;20104;-92
2022/07/01 01:14:43;;;;;;;5.25;2.40;;;;;;;23.82;46.84;99361.97;5036179;28;20025;-93
2022/07/01 01:17:09;;;;;;;3.58;2.28;;;;;;;23.36;47.25;99291.78;5035933;28;20022;-92
2022/07/01 01:19:34;;;;;;;3.78;2.63;;;;;;;23.00;47.36;99282.81;5036024;28;20040;-92
2022/07/01 01:22:00;;;;;;;2.97;2.50;;;;;;;23.05;47.44;99296.31;5035752;28;20047;-93
2022/07/01 01:24:25;;;;;;;3.33;2.65;;;;;;;23.68;47.51;99364.34;5035480;28;20030;-92
2022/07/01 01:26:50;;;;;;;5.85;2.50;;;;;;;23.34;47.61;99323.56;5036673;28;20507;-92
2022/07/01 01:29:16;;;;;;;2.53;2.33;;;;;;;23.37;47.50;99328.44;5035437;28;20021;-93
2022/07/01 01:31:41;;;;;;;3.13;2.40;;;;;;;23.23;47.64;99327.31;5035516;28;20021;-92
2022/07/01 01:34:07;;;;;;;5.70;2.58;;;;;;;23.07;47.40;99299.56;5035199;28;20460;-93
2022/07/01 01:36:32;;;;;;;3.75;2.22;;;;;;;23.33;46.98;99348.91;5035217;28;20026;-92
2022/07/01 01:41:52;;;;;;;4.53;2.33;;;;;;;22.90;47.30;99287.34;5031581;28;20048;-92
2022/07/01 01:44:18;;;;;;;3.20;2.22;;;;;;;23.32;47.33;99374.22;5035402;28;20025;-92
2022/07/01 01:46:44;;;;;;;3.22;2.33;;;;;;;23.31;47.35;99367.22;5035180;28;20021;-93
2022/07/01 01:49:10;;;;;;;3.47;2.45;;;;;;;23.30;47.43;99386.34;5036019;28;20025;-92
2022/07/01 01:51:35;;;;;;;3.90;2.50;;;;;;;23.22;47.58;99392.25;5035117;28;20083;-92
2022/07/01 01:54:01;;;;;;;4.95;2.60;;;;;;;22.19;47.72;99242.06;5034987;28;20033;-92
2022/07/01 01:56:27;;;;;;;3.45;2.30;;;;;;;22.38;47.82;99267.47;5035584;28;20105;-91
2022/07/01 01:58:52;;;;;;;6.32;2.22;;;;;;;23.10;47.85;99384.38;5036052;28;20025;-92
2022/07/01 02:01:19;;;;;;;5.03;2.40;;;;;;;22.89;47.98;99361.94;5035650;28;20585;-92
2022/07/01 02:03:46;;;;;;;2.53;2.22;;;;;;;23.05;47.73;99404.03;5035027;28;20057;-92
2022/07/01 02:06:13;;;;;;;4.28;2.67;;;;;;;22.24;48.04;99289.69;5034987;28;20059;-92
2022/07/01 02:08:40;;;;;;;5.07;2.78;;;;;;;22.74;48.17;99386.06;5035192;28;20017;-92
2022/07/01 02:11:07;;;;;;;7.43;2.40;;;;;;;22.72;48.19;99382.81;5037577;28;20032;-91
2022/07/01 02:13:32;;;;;;;3.85;2.17;;;;;;;22.74;48.14;99405.72;5059016;28;20010;-92
2022/07/01 02:15:58;;;;;;;4.10;2.33;;;;;;;22.54;48.02;99357.16;5045285;28;20403;-92
2022/07/01 02:18:24;;;;;;;4.57;2.45;;;;;;;23.13;48.00;99424.25;5034448;28;20056;-92
2022/07/01 02:20:49;;;;;;;3.00;2.30;;;;;;;23.19;47.74;99446.66;5035716;28;20021;-92
2022/07/01 02:23:15;;;;;;;5.00;2.28;;;;;;;22.52;47.51;99354.72;5034818;28;20108;-92
2022/07/01 02:25:41;;;;;;;4.55;2.95;;;;;;;23.28;47.64;99407.34;5034349;28;20032;-92
2022/07/01 02:28:07;;;;;;;3.50;1.95;;;;;;;22.47;47.46;99332.34;5035025;28;20077;-91
2022/07/01 02:30:36;;;;;;;5.70;2.40;;;;;;;22.75;47.59;99340.03;5034062;28;20116;-92
2022/07/01 02:33:05;;;;;;;4.72;2.30;;;;;;;23.27;47.55;99420.00;5034055;28;20021;-92
2022/07/01 02:35:36;;;;;;;5.45;2.55;;;;;;;23.31;47.69;99414.91;5034218;28;20029;-92
2022/07/01 02:38:02;;;;;;;4.40;2.40;;;;;;;23.11;47.55;99389.50;5034051;28;20112;-92
2022/07/01 02:40:28;;;;;;;6.78;2.40;;;;;;;22.66;47.48;99306.63;5034768;28;20131;-92
2022/07/01 02:42:53;;;;;;;4.65;2.55;;;;;;;22.99;47.52;99394.28;5035312;28;20669;-92
2022/07/01 02:45:18;;;;;;;4.57;2.40;;;;;;;23.18;47.68;99426.16;5033892;28;20406;-92
2022/07/01 02:47:47;;;;;;;4.93;2.50;;;;;;;22.71;47.75;99365.84;5034384;28;20022;-92
2022/07/01 02:50:13;;;;;;;6.03;2.35;;;;;;;22.37;48.00;99319.66;5038623;28;20025;-91
2022/07/01 02:52:41;;;;;;;4.53;2.22;;;;;;;22.95;47.92;99433.56;5039443;28;20536;-92
2022/07/01 02:55:09;;;;;;;3.20;2.33;;;;;;;22.35;47.89;99354.09;5034652;28;20040;-92
2022/07/01 02:57:35;;;;;;;3.97;2.20;;;;;;;22.46;48.04;99389.94;5033655;28;20025;-92
2022/07/01 03:00:01;;;;;;;4.38;2.45;;;;;;;22.80;48.11;99436.19;5034442;28;20037;-92
2022/07/01 03:02:27;;;;;;;5.43;2.97;;;;;;;22.74;48.12;99447.97;5033307;28;20018;-92
2022/07/01 03:04:53;;;;;;;3.22;2.50;;;;;;;22.68;48.25;99447.13;5033773;28;20035;-92
2022/07/01 03:07:19;;;;;;;4.25;2.50;;;;;;;22.02;48.55;99354.31;5034395;28;20025;-92
2022/07/01 03:09:45;;;;;;;4.50;2.60;;;;;;;22.63;48.48;99447.09;5033745;28;20025;-92
2022/07/01 03:12:24;;;;;;;5.15;2.80;;;;;;;22.13;48.37;99372.19;5033746;28;20033;-91
2022/07/01 03:14:57;;;;;;;4.95;2.80;;;;;;;22.11;48.46;99377.81;5033937;28;20021;-93
2022/07/01 03:17:27;;;;;;;5.20;3.08;;;;;;;22.67;48.54;99436.63;5033295;28;20029;-92
2022/07/01 03:19:53;;;;;;;4.70;2.70;;;;;;;22.20;48.37;99357.44;5033188;28;20025;-92
2022/07/01 03:22:23;;;;;;;3.88;3.28;;;;;;;21.71;48.12;99272.66;5033133;28;20036;-92
2022/07/01 03:24:50;;;;;;;4.65;2.95;;;;;;;22.82;47.88;99442.13;5033242;28;20029;-92
2022/07/01 03:27:17;;;;;;;4.80;2.90;;;;;;;22.52;47.97;99387.00;5033935;28;20486;-92
2022/07/01 03:29:43;;;;;;;5.18;3.08;;;;;;;22.86;48.05;99445.91;5033151;28;20083;-91
2022/07/01 03:32:09;;;;;;;5.25;3.10;;;;;;;21.89;47.92;99317.94;5033323;28;20421;-92
2022/07/01 03:34:39;;;;;;;4.93;3.65;;;;;;;22.40;48.06;99380.22;5032526;28;20044;-92
2022/07/01 03:37:07;;;;;;;4.85;3.10;;;;;;;21.93;48.22;99313.66;5032665;28;20406;-92
2022/07/01 03:39:33;;;;;;;7.55;3.25;;;;;;;22.71;48.11;99441.22;5035587;28;20024;-92
2022/07/01 03:41:59;;;;;;;10.75;3.92;;;;;;;22.13;47.98;99348.00;5047516;28;20025;-93
2022/07/01 03:44:24;;;;;;;8.93;3.53;;;;;;;22.48;48.21;99406.63;5053189;28;20032;-91
2022/07/01 03:46:50;;;;;;;3.33;2.90;;;;;;;22.43;48.36;99418.16;5045751;28;20048;-91
2022/07/01 03:49:15;;;;;;;5.55;3.50;;;;;;;22.62;48.32;99445.47;5041075;28;20025;-92
2022/07/01 03:51:40;;;;;;;4.80;2.97;;;;;;;22.49;48.19;99427.88;5035627;28;20018;-92
2022/07/01 03:56:50;;;;;;;7.82;3.40;;;;;;;22.43;48.26;99410.09;5035649;28;20107;-92
2022/07/01 03:59:15;;;;;;;5.93;3.53;;;;;;;22.28;48.29;99379.56;5042212;28;20077;-93
2022/07/01 04:01:41;;;;;;;5.80;3.53;;;;;;;22.82;48.26;99480.63;5047141;28;20029;-92
2022/07/01 04:04:06;;;;;;;5.07;3.22;;;;;;;22.62;48.05;99406.97;5032818;28;20486;-92
2022/07/01 04:06:32;;;;;;;4.43;2.95;;;;;;;21.57;47.87;99223.91;5032584;28;20029;-92
2022/07/01 04:08:57;;;;;;;7.18;3.22;;;;;;;22.72;47.57;99450.91;5033849;28;20059;-92
2022/07/01 04:11:23;;;;;;;5.43;3.47;;;;;;;22.96;47.92;99447.84;5032222;28;20025;-92
2022/07/01 04:13:52;;;;;;;6.30;3.35;;;;;;;23.12;47.62;99469.25;5032634;28;20108;-92
2022/07/01 04:16:18;;;;;;;5.97;3.45;;;;;;;22.43;47.55;99383.19;5032403;28;20528;-92
2022/07/01 04:18:44;;;;;;;4.22;2.80;;;;;;;22.96;47.71;99440.56;5032897;28;20104;-92
2022/07/01 04:23:53;;;;;;;7.63;3.70;;;;;;;23.09;47.60;99447.41;5036717;28;20052;-92
2022/07/01 04:26:19;;;;;;;5.10;3.47;;;;;;;23.02;47.46;99418.00;5034675;28;20406;-92
2022/07/01 04:28:44;;;;;;;7.40;2.90;;;;;;;22.96;47.73;99394.00;5033106;28;20021;-92
2022/07/01 04:31:10;;;;;;;10.55;2.97;;;;;;;23.33;47.59;99440.50;5032181;28;20052;-91
2022/07/01 04:33:35;;;;;;;5.25;3.13;;;;;;;23.37;47.48;99438.09;5032476;28;20413;-92
2022/07/01 04:36:01;;;;;;;4.43;2.92;;;;;;;22.92;47.50;99339.06;5032479;28;20021;-90
2022/07/01 04:38:27;;;;;;;3.72;2.63;;;;;;;23.32;47.29;99389.59;5034248;28;20044;-92
2022/07/01 04:43:36;;;;;;;10.57;3.50;;;;;;;23.94;47.35;99483.84;5046605;28;20511;-92
2022/07/01 04:46:02;;;;;;;6.72;3.30;;;;;;;23.50;47.09;99388.28;5033421;28;20081;-92
2022/07/01 04:48:27;;;;;;;5.40;3.15;;;;;;;24.02;47.09;99450.97;5036088;28;20028;-92
2022/07/01 04:50:52;;;;;;;5.53;3.08;;;;;;;23.75;47.11;99391.03;5036086;28;20029;-92
2022/07/01 04:53:18;;;;;;;7.53;3.40;;;;;;;23.57;47.04;99353.81;5036562;28;20018;-92
2022/07/01 04:55:43;;;;;;;4.72;3.78;;;;;;;23.58;46.69;99353.56;5036440;28;20051;-92
2022/07/01 04:58:08;;;;;;;7.75;3.75;;;;;;;23.68;47.00;99394.00;5036108;28;20109;-92
2022/07/01 05:00:34;;;;;;;4.22;2.75;;;;;;;23.10;46.89;99261.31;5037195;28;20047;-91
2022/07/01 05:02:59;;;;;;;5.82;3.60;;;;;;;24.43;46.98;99461.78;5052981;28;20029;-92
2022/07/01 05:05:25;;;;;;;5.60;3.20;;;;;;;24.56;46.85;99488.28;5052750;28;20032;-92
2022/07/01 05:07:50;;;;;;;5.25;3.47;;;;;;;24.20;46.57;99400.25;5035889;28;20083;-93
2022/07/01 05:10:16;;;;;;;6.30;3.13;;;;;;;24.44;46.47;99416.72;5036079;28;20017;-92
2022/07/01 05:12:41;;;;;;;5.65;3.72;;;;;;;24.78;46.38;99508.78;5041022;28;20479;-92
2022/07/01 05:15:08;;;;;;;5.65;3.20;;;;;;;24.39;46.35;99404.84;5056214;28;20386;-92
2022/07/01 05:23:01;;;;;;;7.40;3.88;;;;;;;25.23;45.71;99473.56;5057948;28;20441;-92
2022/07/01 05:25:27;;;;;;;6.28;3.85;;;;;;;24.99;45.65;99434.75;5056208;28;20033;-92
2022/07/01 05:27:54;;;;;;;9.50;4.97;;;;;;;24.74;45.61;99373.50;5056303;28;20083;-92
2022/07/01 05:30:20;;;;;;;7.10;3.90;;;;;;;24.24;45.26;99275.34;5056837;28;20024;-92
2022/07/01 05:32:45;;;;;;;4.97;4.30;;;;;;;24.72;45.17;99337.84;5063562;28;20035;-93
2022/07/01 05:35:12;;;;;;;7.25;3.55;;;;;;;24.94;45.09;99356.41;5072356;28;20036;-91
2022/07/01 05:37:37;;;;;;;6.25;3.60;;;;;;;25.53;45.00;99455.63;5064953;28;20056;-92
2022/07/01 05:40:03;;;;;;;6.80;3.42;;;;;;;25.42;45.13;99421.63;5063570;28;20071;-92
2022/07/01 05:42:28;;;;;;;6.20;3.80;;;;;;;25.82;44.86;99490.94;5058560;28;20111;-92
2022/07/01 05:44:54;;;;;;;5.20;3.75;;;;;;;24.94;44.90;99319.41;5058503;28;20040;-91
2022/07/01 05:47:19;;;;;;;7.35;4.95;;;;;;;25.63;44.83;99442.88;5057840;28;20084;-91
2022/07/01 05:49:44;;;;;;;7.07;4.28;;;;;;;25.94;44.70;99491.41;5075576;28;20033;-91
2022/07/01 05:52:10;;;;;;;7.88;4.15;;;;;;;25.69;44.61;99442.88;5060669;28;20030;-91
2022/07/01 05:54:35;;;;;;;6.40;3.75;;;;;;;25.42;44.71;99397.31;5059566;28;20040;-91
2022/07/01 05:57:01;;;;;;;4.20;3.78;;;;;;;25.22;44.47;99365.75;5072229;28;20037;-91
2022/07/01 05:59:26;;;;;;;6.75;3.70;;;;;;;25.25;44.66;99363.31;5080577;28;20017;-90
2022/07/01 06:01:51;;;;;;;7.20;3.67;;;;;;;25.79;44.38;99432.78;5077916;28;20028;-92
2022/07/01 06:04:17;;;;;;;8.07;4.03;;;;;;;26.16;44.35;99480.19;5074553;28;20024;-92
2022/07/01 06:06:42;;;;;;;6.13;4.30;;;;;;;26.28;43.96;99489.56;5075306;28;20053;-92
2022/07/01 06:09:08;;;;;;;5.47;3.58;;;;;;;26.05;43.55;99467.81;5054420;28;20047;-92
2022/07/01 06:11:33;;;;;;;8.25;4.43;;;;;;;25.64;43.60;99367.97;5055269;28;20110;-91
2022/07/01 06:13:59;;;;;;;7.57;4.78;;;;;;;25.85;43.17;99401.91;5055186;28;20106;-92
2022/07/01 06:16:24;;;;;;;7.10;3.90;;;;;;;26.17;43.28;99457.44;5055405;28;20031;-92
2022/07/01 06:18:50;;;;;;;5.30;4.20;;;;;;;26.50;43.29;99497.25;5055651;28;20049;-92
2022/07/01 06:21:16;;;;;;;8.77;3.90;;;;;;;26.22;42.96;99419.50;5065617;28;20489;-91
2022/07/01 06:23:42;;;;;;;5.00;3.78;;;;;;;26.06;42.75;99418.81;5057694;28;20420;-92
2022/07/01 06:26:07;;;;;;;4.88;4.07;;;;;;;26.58;42.67;99480.41;5055608;28;20116;-93
2022/07/01 06:28:33;;;;;;;5.53;3.90;;;;;;;25.79;42.45;99342.72;5055086;28;20104;-92
2022/07/01 06:30:58;;;;;;;7.03;3.83;;;;;;;26.25;42.46;99408.94;5057449;28;20032;-92
2022/07/01 06:33:25;;;;;;;6.78;5.20;;;;;;;26.66;42.39;99456.50;5049801;28;20044;-92
2022/07/01 06:35:53;;;;;;;6.95;4.90;;;;;;;26.55;42.36;99436.84;5041675;28;20022;-91
2022/07/01 06:38:19;;;;;;;6.97;4.50;;;;;;;26.13;42.54;99361.69;5071330;28;20108;-92
2022/07/01 06:41:26;;;;;;;5.95;4.30;;;;;;;26.70;42.62;99428.56;5076450;28;20032;-90
2022/07/01 06:43:30;;;;;;;10.65;5.72;;;;;;;26.88;42.59;99464.97;5042377;28;20505;-91
2022/07/01 06:45:55;;;;;;;5.72;4.38;;;;;;;26.93;42.77;99462.22;5037771;28;20045;-91
2022/07/01 06:48:21;;;;;;;10.65;6.30;;;;;;;27.02;42.75;99455.09;5066097;28;20030;-91
2022/07/01 06:50:46;;;;;;;7.25;5.15;;;;;;;26.84;42.66;99415.97;5061980;28;20029;-92
2022/07/01 06:53:12;;;;;;;24.30;14.10;;;;;;;27.16;42.44;99456.00;5050359;28;20030;-90
2022/07/01 06:55:37;;;;;;;13.82;8.18;;;;;;;25.91;42.13;99259.31;5039013;28;20056;-92
2022/07/01 06:58:07;;;;;;;8.45;6.40;;;;;;;26.92;41.96;99395.56;5061336;28;20032;-92
2022/07/01 07:00:32;;;;;;;7.50;6.07;;;;;;;27.40;41.94;99483.09;5075168;28;20009;-92
2022/07/01 07:02:58;;;;;;;7.38;5.03;;;;;;;27.31;41.58;99456.91;5062624;28;20032;-92
2022/07/01 07:05:23;;;;;;;7.95;5.65;;;;;;;27.33;41.38;99450.09;5048752;28;20134;-92
2022/07/01 07:07:49;;;;;;;7.40;4.78;;;;;;;27.08;41.60;99407.88;5034902;28;20039;-92
2022/07/01 07:10:14;;;;;;;5.72;4.05;;;;;;;27.09;41.37;99412.19;5047062;28;20043;-93
2022/07/01 07:12:39;;;;;;;7.13;4.03;;;;;;;27.70;41.38;99487.38;5035907;28;20037;-93
2022/07/01 07:15:05;;;;;;;7.25;6.03;;;;;;;27.07;40.99;99372.91;5045065;28;20029;-92
2022/07/01 07:17:31;;;;;;;5.88;5.30;;;;;;;27.29;40.88;99394.03;5053986;28;20039;-92
2022/07/01 07:19:56;;;;;;;5.78;4.93;;;;;;;27.47;41.18;99429.31;5043997;28;20033;-91
2022/07/01 07:22:22;;;;;;;9.93;5.80;;;;;;;27.83;41.17;99470.38;5040074;28;20896;-91
2022/07/01 07:24:48;;;;;;;5.38;3.72;;;;;;;27.51;40.79;99397.81;5047110;28;20034;-92
2022/07/01 07:27:13;;;;;;;9.05;5.20;;;;;;;28.13;40.94;99481.88;5043792;28;20037;-92
2022/07/01 07:29:39;;;;;;;4.82;3.72;;;;;;;27.75;40.78;99429.53;5050637;28;20025;-90
2022/07/01 07:32:04;;;;;;;7.97;5.68;;;;;;;26.78;41.01;99286.28;5033525;28;20035;-90
2022/07/01 07:34:39;;;;;;;8.50;4.65;;;;;;;28.26;41.18;99491.22;5057322;28;20486;-91
2022/07/01 07:37:05;;;;;;;7.50;5.78;;;;;;;28.42;41.17;99484.44;5066363;28;20028;-90
2022/07/01 07:39:30;;;;;;;7.82;6.25;;;;;;;28.45;41.19;99486.56;5053504;28;20493;-90
2022/07/01 07:41:56;;;;;;;8.35;6.78;;;;;;;28.56;40.86;99487.22;5041702;28;20043;-90
2022/07/01 07:44:21;;;;;;;12.00;7.90;;;;;;;27.94;40.63;99383.38;5033574;28;20060;-90
2022/07/01 07:46:46;;;;;;;9.50;6.70;;;;;;;28.31;40.71;99410.50;5033900;28;20038;-90
2022/07/01 07:49:12;;;;;;;7.35;6.28;;;;;;;28.49;40.67;99452.28;5033412;28;20031;-90
2022/07/01 07:51:37;;;;;;;7.15;5.95;;;;;;;27.29;40.54;99232.19;5033862;28;20029;-90
2022/07/01 07:54:03;;;;;;;10.02;5.75;;;;;;;27.63;40.85;99261.78;5050330;28;20029;-90
2022/07/01 07:56:29;;;;;;;9.95;4.20;;;;;;;27.97;40.14;99312.22;5043494;28;20049;-90
2022/07/01 07:58:55;;;;;;;6.05;4.40;;;;;;;28.74;39.68;99402.09;5047565;28;20125;-89
2022/07/01 08:01:20;;;;;;;6.05;5.38;;;;;;;28.98;39.70;99437.28;5052198;28;20032;-89
2022/07/01 08:03:46;;;;;;;7.57;4.80;;;;;;;28.57;39.43;99380.97;5054706;28;20032;-89
2022/07/01 08:06:12;;;;;;;12.25;6.47;;;;;;;28.35;39.30;99343.63;5049409;28;20025;-89
2022/07/01 08:08:37;;;;;;;9.50;6.25;;;;;;;28.25;39.44;99319.38;5039933;28;20045;-88
2022/07/01 08:11:03;;;;;;;5.53;4.47;;;;;;;29.10;38.82;99438.41;5047338;28;20052;-88
2022/07/01 08:13:29;;;;;;;7.25;4.78;;;;;;;29.54;38.20;99476.97;5046118;28;20036;-91
2022/07/01 08:15:55;;;;;;;8.60;5.30;;;;;;;29.00;38.42;99378.81;5059684;28;20062;-89
2022/07/01 08:18:21;;;;;;;7.00;4.32;;;;;;;29.68;37.68;99473.13;5056437;28;20044;-89
2022/07/01 08:20:46;;;;;;;7.30;6.15;;;;;;;29.29;37.83;99399.41;5053027;28;20028;-91
2022/07/01 08:23:12;;;;;;;9.15;8.23;;;;;;;29.93;37.71;99495.47;5051761;28;20027;-88
2022/07/01 08:25:38;;;;;;;6.10;4.32;;;;;;;29.31;37.52;99372.72;5051948;28;20039;-88
2022/07/01 08:28:03;;;;;;;8.77;6.72;;;;;;;29.56;37.73;99421.13;5041844;28;20076;-89
2022/07/01 08:30:29;;;;;;;7.53;5.93;;;;;;;28.94;37.78;99295.72;5050516;28;20017;-88
2022/07/01 08:32:54;;;;;;;5.63;5.13;;;;;;;29.59;37.18;99374.28;5062159;28;20024;-89
2022/07/01 08:35:19;;;;;;;5.22;4.50;;;;;;;30.02;37.29;99441.91;5074223;28;20501;-88
2022/07/01 08:37:45;;;;;;;7.18;6.30;;;;;;;29.57;37.09;99340.31;5063682;28;20033;-89
2022/07/01 08:40:10;;;;;;;6.78;4.50;;;;;;;30.25;36.96;99437.25;5035145;28;20654;-90
2022/07/01 08:42:36;;;;;;;6.05;5.45;;;;;;;30.33;36.72;99450.13;5052337;28;20417;-89
2022/07/01 08:45:01;;;;;;;4.68;4.00;;;;;;;30.09;36.61;99387.03;5049486;28;20030;-89
2022/07/01 08:47:27;;;;;;;7.88;4.43;;;;;;;30.15;36.46;99364.78;5040175;28;20040;-88
2022/07/01 08:49:52;;;;;;;5.38;4.75;;;;;;;30.85;36.47;99500.34;5052358;28;20028;-89
2022/07/01 08:52:18;;;;;;;8.35;4.28;;;;;;;30.73;35.65;99442.06;5054560;28;20092;-89
2022/07/01 08:54:43;;;;;;;9.43;4.53;;;;;;;30.97;35.99;99467.03;5048466;28;20029;-89
2022/07/01 08:57:09;;;;;;;6.35;4.35;;;;;;;30.97;36.01;99470.56;5046449;28;20124;-90
2022/07/01 08:59:34;;;;;;;8.10;4.50;;;;;;;30.43;36.12;99359.16;5052327;28;20112;-90
2022/07/01 09:02:03;;;;;;;7.55;5.28;;;;;;;30.87;35.87;99397.25;5040138;28;20030;-90
2022/07/01 09:04:29;;;;;;;10.98;4.45;;;;;;;30.84;35.28;99386.97;5031971;28;20037;-90
2022/07/01 09:07:07;;;;;;;6.53;4.60;;;;;;;31.56;33.72;99462.94;5015982;28;20034;-89
2022/07/01 09:09:37;;;;;;;5.18;4.28;;;;;;;31.36;34.26;99398.03;5065451;28;20115;-89
2022/07/01 09:12:04;;;;;;;5.15;3.83;;;;;;;31.85;33.83;99462.34;5056799;28;20033;-89
2022/07/01 09:14:32;;;;;;;5.70;4.93;;;;;;;30.96;34.04;99327.16;5036736;28;20053;-90
2022/07/01 09:16:59;;;;;;;7.25;3.72;;;;;;;30.59;33.61;99237.78;5054072;28;20021;-89
2022/07/01 09:19:27;;;;;;;12.77;4.00;;;;;;;31.65;33.33;99358.41;5052516;28;20029;-89
2022/07/01 09:22:01;;;;;;;5.95;3.65;;;;;;;31.96;33.23;99385.56;5071269;28;20059;-89
2022/07/01 09:24:28;;;;;;;6.95;4.38;;;;;;;32.66;32.75;99449.91;5031476;28;20037;-89
2022/07/01 09:26:55;;;;;;;4.20;3.50;;;;;;;32.77;31.84;99452.00;5044744;28;20116;-89
2022/07/01 09:29:26;;;;;;;5.82;3.88;;;;;;;32.91;31.48;99445.50;5032375;28;20525;-89
2022/07/01 09:31:51;;;;;;;5.30;4.80;;;;;;;32.74;31.60;99400.69;5040343;28;20056;-88
2022/07/01 09:34:16;;;;;;;6.32;3.75;;;;;;;33.01;30.61;99409.59;5053524;28;20107;-89
2022/07/01 09:36:52;;;;;;;5.93;3.80;;;;;;;32.96;29.74;99344.13;5041057;28;20033;-89
2022/07/01 09:39:17;;;;;;;4.72;3.85;;;;;;;33.02;29.80;99346.34;5035619;28;20030;-89
2022/07/01 09:41:42;;;;;;;5.97;3.67;;;;;;;33.46;29.19;99385.22;5044301;28;20025;-89
2022/07/01 09:44:09;;;;;;;5.07;3.92;;;;;;;32.40;28.59;99163.03;5052786;28;20029;-89
2022/07/01 09:46:35;;;;;;;4.78;4.30;;;;;;;33.50;28.53;99325.13;5069458;28;20496;-89
2022/07/01 09:49:02;;;;;;;4.75;3.85;;;;;;;34.28;27.72;99393.69;5067405;28;20021;-88
2022/07/01 09:51:28;;;;;;;5.80;3.58;;;;;;;34.37;27.33;99389.75;5041072;28;20087;-89
2022/07/01 09:53:56;;;;;;;5.28;4.43;;;;;;;34.38;26.80;99368.59;5032776;28;20045;-89
2022/07/01 09:56:24;;;;;;;6.32;4.50;;;;;;;35.01;26.67;99435.00;5039803;28;20049;-89
2022/07/01 09:58:50;;;;;;;5.68;5.18;;;;;;;35.17;26.54;99435.91;5036136;28;20478;-88
2022/07/01 10:01:16;;;;;;;7.75;6.28;;;;;;;34.95;26.54;99384.22;5040262;28;20029;-88
2022/07/01 10:03:42;;;;;;;6.47;4.38;;;;;;;35.08;26.58;99405.03;5049875;28;20032;-88
2022/07/01 10:06:07;;;;;;;6.53;4.82;;;;;;;35.46;26.45;99429.34;5037890;28;20026;-89
2022/07/01 10:09:06;;;;;;;5.65;5.07;;;;;;;35.60;26.19;99423.50;5036390;28;20120;-88
2022/07/01 10:12:10;;;;;;;5.05;3.42;;;;;;;35.45;25.86;99369.28;5035044;28;20052;-88
2022/07/01 10:14:39;;;;;;;6.97;5.70;;;;;;;35.60;26.40;99371.31;5035070;28;20033;-88
2022/07/01 10:17:05;;;;;;;4.43;3.55;;;;;;;35.58;25.71;99337.91;5033434;28;20025;-88
2022/07/01 10:19:33;;;;;;;6.75;4.35;;;;;;;36.22;25.71;99419.41;5033979;28;20026;-88
2022/07/01 10:22:25;;;;;;;5.35;3.58;;;;;;;36.40;25.48;99417.94;5052208;28;20120;-89
2022/07/01 10:24:50;;;;;;;6.10;3.80;;;;;;;36.45;25.37;99423.22;5037662;28;20025;-89
2022/07/01 10:27:22;;;;;;;4.00;3.50;;;;;;;36.15;24.74;99347.75;5034213;28;20858;-88
2022/07/01 10:29:47;;;;;;;4.18;3.42;;;;;;;36.33;24.98;99384.75;5050423;28;20032;-87
2022/07/01 10:32:22;;;;;;;5.78;4.20;;;;;;;36.14;25.09;99341.44;5037721;28;20116;-88
2022/07/01 10:34:48;;;;;;;6.45;3.50;;;;;;;36.13;25.40;99408.56;5044091;28;20029;-89
2022/07/01 10:37:17;;;;;;;5.50;3.85;;;;;;;35.59;25.19;99310.09;5051195;28;20036;-88
2022/07/01 10:39:57;;;;;;;7.50;4.20;;;;;;;36.26;24.69;99403.78;5053344;28;20036;-88
2022/07/01 10:42:27;;;;;;;9.90;4.43;;;;;;;36.01;24.82;99350.13;5052461;28;20041;-88
2022/07/01 10:45:09;;;;;;;4.22;3.83;;;;;;;36.24;25.05;99401.41;5051636;28;20040;-89
2022/07/01 10:47:38;;;;;;;8.88;7.38;;;;;;;36.20;25.18;99363.97;5053650;28;20036;-89
2022/07/01 10:50:06;;;;;;;7.55;6.80;;;;;;;36.05;25.14;99283.09;5052263;28;20116;-88
2022/07/01 10:52:33;;;;;;;6.97;6.28;;;;;;;36.46;24.45;99311.25;5052139;28;20057;-88
2022/07/01 10:55:00;;;;;;;8.00;3.78;;;;;;;36.86;23.59;99361.38;5057382;28;20029;-88
2022/07/01 10:57:41;;;;;;;6.13;3.50;;;;;;;36.46;22.68;99298.31;5053249;28;20513;-88
2022/07/01 11:00:06;;;;;;;9.63;4.60;;;;;;;37.18;23.15;99388.84;5043072;28;20032;-88
2022/07/01 11:02:33;;;;;;;3.95;3.60;;;;;;;37.19;23.07;99354.66;5052518;28;20024;-88
2022/07/01 11:05:18;;;;;;;5.82;3.92;;;;;;;37.60;22.67;99380.75;5053673;28;20397;-88
2022/07/01 11:07:45;;;;;;;11.63;3.38;;;;;;;37.75;22.38;99379.91;5046253;28;20029;-88
2022/07/01 11:10:13;;;;;;;4.93;3.67;;;;;;;37.44;22.45;99289.13;5033577;28;20107;-88
2022/07/01 11:12:40;;;;;;;4.85;3.80;;;;;;;36.97;21.83;99195.69;5039348;28;20043;-88
2022/07/01 11:15:07;;;;;;;3.67;3.15;;;;;;;37.71;21.52;99271.56;5045765;28;20068;-88
2022/07/01 11:17:34;;;;;;;4.90;3.60;;;;;;;38.34;21.83;99375.94;5039630;28;20528;-88
2022/07/01 11:20:02;;;;;;;4.78;3.90;;;;;;;38.23;21.59;99319.78;5031798;28;20045;-89
2022/07/01 11:22:33;;;;;;;7.30;3.30;;;;;;;38.65;21.61;99357.56;5032117;28;20498;-89
2022/07/01 11:24:59;;;;;;;;;;;;;;;38.88;21.41;99361.06;5033744;28;20029;-88
2022/07/01 11:27:25;;;;;;;4.53;3.33;;;;;;;38.82;21.08;99362.56;5036486;28;20290;-87
2022/07/01 11:29:57;;;;;;;5.38;4.07;;;;;;;38.69;20.72;99314.25;5038458;28;20025;-87
2022/07/01 11:32:31;;;;;;;3.95;3.10;;;;;;;38.56;20.87;99286.03;5050362;28;20437;-88
2022/07/01 11:34:59;;;;;;;5.65;4.95;;;;;;;38.30;20.87;99228.09;5040201;28;20026;-87
2022/07/01 11:40:17;;;;;;;6.05;3.92;;;;;;;38.39;20.80;99279.06;5033268;28;20528;-87
2022/07/01 11:42:44;;;;;;;5.50;4.10;;;;;;;38.01;21.53;99280.00;5031640;28;20075;-87
2022/07/01 11:45:21;;;;;;;5.13;4.00;;;;;;;37.67;22.21;99303.72;5032287;28;20502;-88
2022/07/01 11:47:47;;;;;;;7.93;4.55;;;;;;;37.53;22.26;99253.88;5039367;28;20033;-87
2022/07/01 11:50:14;;;;;;;6.85;4.25;;;;;;;37.98;22.12;99304.75;5052693;28;20463;-88
2022/07/01 11:52:39;;;;;;;8.15;4.15;;;;;;;38.08;21.87;99271.06;5052797;28;20021;-88